createdAt,value
2019-02-26T00:00:51.937Z,21.55
2019-02-26T00:01:59.768Z,15.63
2019-02-26T00:03:04.760Z,15.18
2019-02-26T00:04:10.500Z,17.12
2019-02-26T00:05:17.360Z,18.57
2019-02-26T00:06:24.798Z,22.07
2019-02-26T00:07:32.075Z,23.90
2019-02-26T00:08:41.732Z,18.27
2019-02-26T00:09:51.197Z,23.07
2019-02-26T00:10:58.580Z,28.15
2019-02-26T00:12:02.404Z,19.52
2019-02-26T00:13:07.315Z,14.70
2019-02-26T00:14:20.244Z,18.17
2019-02-26T00:15:24.496Z,19.75
2019-02-26T00:16:29.835Z,27.50
2019-02-26T00:17:45.300Z,19.92
2019-02-26T00:18:51.256Z,21.48
2019-02-26T00:20:05.771Z,17.12
2019-02-26T00:21:10.861Z,15.35
2019-02-26T00:22:18.108Z,16.02
2019-02-26T00:23:23.731Z,17.37
2019-02-26T00:24:35.040Z,11.15
2019-02-26T00:25:43.702Z,15.45
2019-02-26T00:26:56.149Z,15.43
2019-02-26T00:28:11.550Z,16.70
2019-02-26T00:29:16.495Z,16.85
2019-02-26T00:30:21.328Z,14.15
2019-02-26T00:31:28.752Z,12.20
2019-02-26T00:32:33.911Z,16.23
2019-02-26T00:33:43.386Z,16.02
2019-02-26T00:34:48.399Z,16.80
2019-02-26T00:35:53.337Z,13.40
2019-02-26T00:37:00.027Z,12.85
2019-02-26T00:38:06.183Z,18.92
2019-02-26T00:39:11.460Z,19.23
2019-02-26T00:40:19.547Z,13.53
2019-02-26T00:41:24.681Z,16.30
2019-02-26T00:42:32.007Z,15.25
2019-02-26T00:43:37.189Z,17.07
2019-02-26T00:44:42.027Z,19.45
2019-02-26T00:45:46.897Z,19.80
2019-02-26T00:46:55.395Z,21.40
2019-02-26T00:48:00.250Z,27.55
2019-02-26T00:49:07.454Z,26.37
2019-02-26T00:50:14.071Z,20.82
2019-02-26T00:51:21.037Z,25.02
2019-02-26T00:52:25.903Z,24.87
2019-02-26T00:53:32.886Z,26.12
2019-02-26T00:54:37.383Z,22.17
2019-02-26T00:55:42.427Z,20.70
2019-02-26T00:56:47.646Z,23.40
2019-02-26T00:57:52.599Z,15.30
2019-02-26T00:58:59.455Z,23.90
2019-02-26T01:00:05.330Z,19.37
2019-02-26T01:01:12.962Z,19.82
2019-02-26T01:02:18.196Z,15.50
2019-02-26T01:03:23.355Z,14.07
2019-02-26T01:04:28.590Z,18.45
2019-02-26T01:05:34.046Z,14.30
2019-02-26T01:06:39.953Z,18.95
2019-02-26T01:07:47.416Z,24.60
2019-02-26T01:08:52.150Z,17.02
2019-02-26T01:09:59.224Z,13.40
2019-02-26T01:11:07.765Z,15.50
2019-02-26T01:12:13.658Z,11.65
2019-02-26T01:13:20.273Z,13.40
2019-02-26T01:14:25.169Z,13.38
2019-02-26T01:15:30.035Z,12.63
2019-02-26T01:16:37.134Z,13.93
2019-02-26T01:17:42.245Z,18.48
2019-02-26T01:18:49.369Z,17.45
2019-02-26T01:19:58.766Z,13.90
2019-02-26T01:21:04.304Z,17.85
2019-02-26T01:22:09.733Z,15.90
2019-02-26T01:23:16.459Z,15.30
2019-02-26T01:24:23.545Z,14.05
2019-02-26T01:25:28.314Z,16.70
2019-02-26T01:26:33.307Z,14.80
2019-02-26T01:27:38.213Z,18.42
2019-02-26T01:28:46.172Z,16.95
2019-02-26T01:29:53.195Z,15.85
2019-02-26T01:30:57.926Z,21.27
2019-02-26T01:32:03.216Z,16.80
2019-02-26T01:33:09.699Z,17.02
2019-02-26T01:34:15.859Z,19.37
2019-02-26T01:35:21.479Z,25.55
2019-02-26T01:36:26.362Z,13.60
2019-02-26T01:37:36.174Z,17.48
2019-02-26T01:38:41.666Z,15.55
2019-02-26T01:39:49.600Z,14.80
2019-02-26T01:40:55.869Z,15.40
2019-02-26T01:42:00.504Z,13.05
2019-02-26T01:43:05.661Z,16.93
2019-02-26T01:44:10.648Z,13.65
2019-02-26T01:45:15.671Z,15.98
2019-02-26T01:46:20.513Z,17.25
2019-02-26T01:47:26.372Z,23.32
2019-02-26T01:48:32.180Z,15.75
2019-02-26T01:49:39.775Z,13.98
2019-02-26T01:50:44.937Z,12.60
2019-02-26T01:51:51.689Z,17.42
2019-02-26T01:52:58.511Z,15.00
2019-02-26T01:54:02.845Z,15.23
2019-02-26T01:55:09.433Z,12.43
2019-02-26T01:56:14.349Z,14.47
2019-02-26T01:57:19.161Z,11.88
2019-02-26T01:58:24.973Z,11.57
2019-02-26T01:59:31.748Z,11.45
2019-02-26T02:00:36.333Z,15.78
2019-02-26T02:01:44.183Z,20.05
2019-02-26T02:02:48.177Z,11.55
2019-02-26T02:03:55.845Z,17.50
2019-02-26T02:05:00.134Z,18.65
2019-02-26T02:06:06.642Z,16.67
2019-02-26T02:07:12.541Z,10.90
2019-02-26T02:08:18.607Z,14.03
2019-02-26T02:09:25.149Z,12.55
2019-02-26T02:10:30.391Z,19.77
2019-02-26T02:11:37.611Z,24.00
2019-02-26T02:12:42.549Z,13.80
2019-02-26T02:13:49.018Z,11.30
2019-02-26T02:14:53.814Z,11.68
2019-02-26T02:15:59.733Z,18.17
2019-02-26T02:17:08.504Z,15.65
2019-02-26T02:18:14.461Z,13.08
2019-02-26T02:19:22.264Z,9.40
2019-02-26T02:20:26.261Z,12.33
2019-02-26T02:21:33.267Z,10.23
2019-02-26T02:22:39.842Z,11.10
2019-02-26T02:23:46.544Z,11.70
2019-02-26T02:24:53.529Z,9.40
2019-02-26T02:26:02.184Z,11.85
2019-02-26T02:27:04.786Z,12.28
2019-02-26T02:28:09.674Z,8.60
2019-02-26T02:29:16.546Z,18.05
2019-02-26T02:30:26.765Z,11.48
2019-02-26T02:31:31.391Z,14.23
2019-02-26T02:32:34.569Z,16.37
2019-02-26T02:33:39.483Z,12.70
2019-02-26T02:34:44.294Z,12.95
2019-02-26T02:35:49.106Z,12.78
2019-02-26T02:36:54.074Z,15.63
2019-02-26T02:38:01.700Z,18.35
2019-02-26T02:39:10.362Z,15.40
2019-02-26T02:40:14.049Z,10.85
2019-02-26T02:41:18.881Z,13.90
2019-02-26T02:42:23.828Z,19.40
2019-02-26T02:43:29.177Z,12.28
2019-02-26T02:44:34.449Z,14.55
2019-02-26T02:45:43.079Z,20.80
2019-02-26T02:46:47.908Z,10.65
2019-02-26T02:47:57.706Z,14.58
2019-02-26T02:48:59.408Z,11.90
2019-02-26T02:50:09.156Z,15.93
2019-02-26T02:51:13.814Z,11.68
2019-02-26T02:52:18.926Z,17.20
2019-02-26T02:53:24.522Z,9.60
2019-02-26T02:54:30.233Z,15.32
2019-02-26T02:55:37.757Z,11.55
2019-02-26T02:56:44.337Z,9.70
2019-02-26T02:57:52.363Z,12.95
2019-02-26T02:58:55.683Z,14.95
2019-02-26T03:00:02.627Z,12.20
2019-02-26T03:01:07.106Z,14.10
2019-02-26T03:02:14.416Z,11.28
2019-02-26T03:03:19.049Z,11.65
2019-02-26T03:04:27.863Z,14.38
2019-02-26T03:05:32.115Z,10.93
2019-02-26T03:06:38.682Z,13.13
2019-02-26T03:07:46.016Z,11.18
2019-02-26T03:08:51.097Z,15.05
2019-02-26T03:09:57.937Z,10.90
2019-02-26T03:11:03.847Z,12.60
2019-02-26T03:12:08.690Z,12.63
2019-02-26T03:13:14.423Z,9.80
2019-02-26T03:14:20.663Z,11.43
2019-02-26T03:15:27.362Z,11.55
2019-02-26T03:16:32.614Z,11.75
2019-02-26T03:17:37.458Z,10.15
2019-02-26T03:18:45.377Z,14.60
2019-02-26T03:19:50.190Z,12.07
2019-02-26T03:20:56.702Z,12.40
2019-02-26T03:22:01.467Z,11.20
2019-02-26T03:23:08.687Z,10.13
2019-02-26T03:24:12.955Z,22.42
2019-02-26T03:25:20.986Z,10.25
2019-02-26T03:26:25.923Z,14.23
2019-02-26T03:27:33.642Z,14.20
2019-02-26T03:28:39.501Z,10.68
2019-02-26T03:29:45.065Z,17.57
2019-02-26T03:30:50.537Z,12.13
2019-02-26T03:31:55.620Z,12.33
2019-02-26T03:33:04.463Z,11.95
2019-02-26T03:34:10.428Z,12.00
2019-02-26T03:35:16.651Z,14.50
2019-02-26T03:36:21.789Z,14.60
2019-02-26T03:37:28.817Z,21.40
2019-02-26T03:38:33.284Z,12.37
2019-02-26T03:39:38.467Z,19.77
2019-02-26T03:40:43.247Z,14.58
2019-02-26T03:41:48.638Z,12.65
2019-02-26T03:42:54.517Z,16.57
2019-02-26T03:44:00.680Z,12.65
2019-02-26T03:45:04.598Z,11.53
2019-02-26T03:46:10.509Z,14.25
2019-02-26T03:47:16.279Z,19.30
2019-02-26T03:48:21.317Z,15.25
2019-02-26T03:49:27.029Z,19.35
2019-02-26T03:50:31.433Z,15.38
2019-02-26T03:51:39.102Z,20.88
2019-02-26T03:52:43.248Z,15.55
2019-02-26T03:53:48.108Z,17.77
2019-02-26T03:54:52.987Z,26.50
2019-02-26T03:56:02.010Z,16.48
2019-02-26T03:57:04.904Z,18.95
2019-02-26T03:58:09.734Z,25.80
2019-02-26T03:59:14.606Z,19.50
2019-02-26T04:00:20.431Z,23.05
2019-02-26T04:01:25.537Z,15.78
2019-02-26T04:02:30.311Z,18.05
2019-02-26T04:03:37.087Z,15.48
2019-02-26T04:04:41.813Z,14.40
2019-02-26T04:05:46.651Z,13.38
2019-02-26T04:06:51.448Z,13.38
2019-02-26T04:07:58.918Z,15.40
2019-02-26T04:09:02.870Z,15.93
2019-02-26T04:10:08.761Z,15.63
2019-02-26T04:11:13.799Z,14.90
2019-02-26T04:12:20.918Z,15.58
2019-02-26T04:13:25.836Z,12.90
2019-02-26T04:14:30.765Z,26.15
2019-02-26T04:15:36.450Z,18.73
2019-02-26T04:16:43.603Z,20.20
2019-02-26T04:17:48.651Z,13.80
2019-02-26T04:18:53.422Z,12.82
2019-02-26T04:19:58.267Z,11.95
2019-02-26T04:21:05.738Z,22.82
2019-02-26T04:22:31.278Z,10.93
2019-02-26T04:23:38.953Z,14.83
2019-02-26T04:24:42.636Z,17.80
2019-02-26T04:26:18.532Z,22.07
2019-02-26T04:28:02.659Z,17.35
2019-02-26T04:29:21.690Z,16.75
2019-02-26T04:33:24.368Z,23.65
2019-02-26T04:35:02.876Z,17.23
2019-02-26T04:36:25.432Z,22.30
2019-02-26T04:38:03.538Z,14.80
2019-02-26T04:39:53.287Z,17.60
2019-02-26T04:41:35.511Z,16.80
2019-02-26T04:43:15.381Z,15.10
2019-02-26T04:44:55.172Z,12.53
2019-02-26T04:46:39.553Z,14.20
2019-02-26T04:47:48.222Z,18.20
2019-02-26T04:48:50.883Z,19.07
2019-02-26T04:49:57.258Z,15.03
2019-02-26T04:51:02.209Z,11.90
2019-02-26T04:52:08.574Z,12.40
2019-02-26T04:53:13.763Z,11.20
2019-02-26T04:54:23.809Z,9.10
2019-02-26T04:55:27.191Z,16.35
2019-02-26T04:56:33.848Z,14.65
2019-02-26T04:57:40.179Z,13.00
2019-02-26T04:58:45.882Z,14.38
2019-02-26T04:59:51.118Z,15.95
2019-02-26T05:00:55.889Z,10.85
2019-02-26T05:02:00.861Z,14.75
2019-02-26T05:03:05.835Z,15.03
2019-02-26T05:04:11.628Z,12.35
2019-02-26T05:05:16.481Z,20.92
2019-02-26T05:06:20.533Z,17.75
2019-02-26T05:07:25.393Z,14.07
2019-02-26T05:08:32.099Z,15.60
2019-02-26T05:09:37.263Z,18.37
2019-02-26T05:10:48.921Z,24.05
2019-02-26T05:12:00.374Z,14.23
2019-02-26T05:13:24.596Z,20.15
2019-02-26T05:14:29.020Z,19.60
2019-02-26T05:15:39.215Z,36.08
2019-02-26T05:16:44.241Z,19.80
2019-02-26T05:17:49.667Z,14.53
2019-02-26T05:19:03.116Z,14.93
2019-02-26T05:20:16.545Z,18.10
2019-02-26T05:21:20.732Z,23.90
2019-02-26T05:22:27.672Z,17.75
2019-02-26T05:23:33.646Z,21.33
2019-02-26T05:24:41.462Z,11.83
2019-02-26T05:25:45.316Z,14.30
2019-02-26T05:26:50.113Z,12.10
2019-02-26T05:27:55.363Z,14.98
2019-02-26T05:29:00.445Z,13.90
2019-02-26T05:30:07.061Z,16.15
2019-02-26T05:31:14.482Z,16.32
2019-02-26T05:32:18.712Z,20.32
2019-02-26T05:33:25.260Z,14.38
2019-02-26T05:34:29.958Z,16.55
2019-02-26T05:35:37.829Z,14.03
2019-02-26T05:36:45.867Z,14.13
2019-02-26T05:37:49.679Z,12.60
2019-02-26T05:38:57.034Z,11.60
2019-02-26T05:40:14.956Z,16.67
2019-02-26T05:41:18.978Z,16.12
2019-02-26T05:42:24.027Z,15.32
2019-02-26T05:43:33.932Z,17.57
2019-02-26T05:44:37.552Z,12.70
2019-02-26T05:45:42.326Z,11.33
2019-02-26T05:46:49.649Z,13.50
2019-02-26T05:47:58.543Z,18.10
2019-02-26T05:49:12.584Z,18.32
2019-02-26T05:50:16.587Z,12.70
2019-02-26T05:51:21.065Z,11.70
2019-02-26T05:52:27.260Z,15.38
2019-02-26T05:53:32.494Z,16.95
2019-02-26T05:54:37.383Z,13.25
2019-02-26T05:55:44.344Z,14.15
2019-02-26T05:56:49.859Z,12.68
2019-02-26T05:58:00.955Z,14.03
2019-02-26T05:59:15.380Z,16.97
2019-02-26T06:00:33.077Z,15.58
2019-02-26T06:02:24.367Z,15.90
2019-02-26T06:03:34.491Z,15.85
2019-02-26T06:04:41.031Z,18.70
2019-02-26T06:05:48.938Z,22.17
2019-02-26T06:07:04.736Z,15.32
2019-02-26T06:08:11.966Z,15.00
2019-02-26T06:09:24.930Z,17.37
2019-02-26T06:10:30.438Z,16.95
2019-02-26T06:11:36.799Z,18.35
2019-02-26T06:12:48.086Z,12.88
2019-02-26T06:13:55.531Z,12.82
2019-02-26T06:15:04.099Z,15.18
2019-02-26T06:16:09.089Z,24.30
2019-02-26T06:17:15.486Z,17.20
2019-02-26T06:18:25.376Z,14.78
2019-02-26T06:19:45.200Z,14.13
2019-02-26T06:20:51.583Z,28.62
2019-02-26T06:22:03.536Z,13.75
2019-02-26T06:23:08.802Z,20.30
2019-02-26T06:24:24.395Z,15.23
2019-02-26T06:25:28.175Z,16.70
2019-02-26T06:26:36.075Z,25.90
2019-02-26T06:27:40.359Z,15.95
2019-02-26T06:28:52.839Z,18.67
2019-02-26T06:30:00.093Z,15.65
2019-02-26T06:31:07.386Z,17.00
2019-02-26T06:32:14.552Z,14.85
2019-02-26T06:33:19.757Z,11.40
2019-02-26T06:34:24.731Z,15.95
2019-02-26T06:36:08.157Z,18.55
2019-02-26T06:37:35.408Z,13.45
2019-02-26T06:38:38.682Z,16.48
2019-02-26T06:39:43.551Z,12.05
2019-02-26T06:40:52.584Z,11.55
2019-02-26T06:42:05.123Z,13.18
2019-02-26T06:43:09.133Z,16.07
2019-02-26T06:44:13.918Z,15.48
2019-02-26T06:45:18.732Z,13.18
2019-02-26T06:46:26.209Z,15.53
2019-02-26T06:47:31.559Z,13.75
2019-02-26T06:48:40.354Z,13.22
2019-02-26T06:49:47.957Z,15.68
2019-02-26T06:50:52.747Z,14.15
2019-02-26T06:52:00.239Z,11.57
2019-02-26T06:53:08.534Z,16.37
2019-02-26T06:54:15.370Z,13.20
2019-02-26T06:55:19.712Z,17.30
2019-02-26T06:56:25.246Z,14.87
2019-02-26T06:57:34.688Z,15.23
2019-02-26T06:58:44.959Z,13.22
2019-02-26T06:59:50.823Z,24.23
2019-02-26T07:01:01.497Z,14.60
2019-02-26T07:02:08.807Z,11.53
2019-02-26T07:03:32.853Z,15.25
2019-02-26T07:04:38.473Z,16.27
2019-02-26T07:05:46.466Z,16.35
2019-02-26T07:06:59.180Z,19.90
2019-02-26T07:08:04.266Z,20.77
2019-02-26T07:09:10.830Z,15.20
2019-02-26T07:10:18.358Z,12.55
2019-02-26T07:11:21.709Z,17.05
2019-02-26T07:12:28.126Z,15.93
2019-02-26T07:13:33.945Z,21.33
2019-02-26T07:14:39.460Z,15.78
2019-02-26T07:15:49.513Z,22.60
2019-02-26T07:16:56.544Z,22.90
2019-02-26T07:18:04.409Z,11.78
2019-02-26T07:19:09.636Z,19.65
2019-02-26T07:20:15.208Z,15.83
2019-02-26T07:21:20.991Z,23.75
2019-02-26T07:22:26.482Z,13.35
2019-02-26T07:23:34.578Z,18.82
2019-02-26T07:24:38.568Z,15.98
2019-02-26T07:25:44.167Z,24.12
2019-02-26T07:26:49.410Z,13.68
2019-02-26T07:28:02.948Z,20.88
2019-02-26T07:30:54.140Z,18.48
2019-02-26T07:32:07.669Z,20.70
2019-02-26T07:33:27.852Z,12.25
2019-02-26T07:34:44.584Z,14.15
2019-02-26T07:35:48.727Z,13.43
2019-02-26T07:36:56.654Z,14.13
2019-02-26T07:38:03.661Z,13.28
2019-02-26T07:39:10.929Z,18.15
2019-02-26T07:40:18.018Z,36.03
2019-02-26T07:41:23.189Z,20.08
2019-02-26T07:42:32.693Z,19.12
2019-02-26T07:43:38.715Z,27.10
2019-02-26T07:44:41.213Z,16.77
2019-02-26T07:45:47.007Z,22.40
2019-02-26T07:46:51.186Z,16.75
2019-02-26T07:47:58.326Z,24.52
2019-02-26T07:49:04.858Z,19.45
2019-02-26T07:50:09.721Z,24.27
2019-02-26T07:51:15.761Z,22.85
2019-02-26T07:52:21.573Z,17.35
2019-02-26T07:53:27.070Z,19.52
2019-02-26T07:54:31.176Z,23.80
2019-02-26T07:55:38.200Z,20.02
2019-02-26T07:56:44.503Z,22.65
2019-02-26T07:58:00.573Z,15.25
2019-02-26T07:59:09.449Z,18.07
2019-02-26T08:00:15.368Z,19.30
2019-02-26T08:01:20.492Z,14.85
2019-02-26T08:02:27.768Z,15.63
2019-02-26T08:03:35.093Z,10.95
2019-02-26T08:04:41.787Z,12.68
2019-02-26T08:05:46.640Z,12.43
2019-02-26T08:06:52.331Z,18.32
2019-02-26T08:07:56.998Z,19.77
2019-02-26T08:09:04.642Z,14.47
2019-02-26T08:10:12.348Z,15.72
2019-02-26T08:11:18.196Z,13.25
2019-02-26T08:12:23.919Z,13.78
2019-02-26T08:13:31.709Z,15.63
2019-02-26T08:14:40.191Z,15.60
2019-02-26T08:15:45.131Z,15.50
2019-02-26T08:17:06.270Z,14.83
2019-02-26T08:18:11.261Z,16.02
2019-02-26T08:19:16.184Z,20.55
2019-02-26T08:20:22.795Z,15.95
2019-02-26T08:21:29.569Z,14.95
2019-02-26T08:22:37.381Z,12.15
2019-02-26T08:23:38.989Z,20.43
2019-02-26T08:24:45.546Z,18.00
2019-02-26T08:25:52.448Z,17.77
2019-02-26T08:26:57.656Z,16.90
2019-02-26T08:28:05.137Z,16.25
2019-02-26T08:29:09.939Z,20.32
2019-02-26T08:30:18.824Z,23.75
2019-02-26T08:31:23.319Z,23.95
2019-02-26T08:32:30.468Z,24.50
2019-02-26T08:33:38.511Z,20.82
2019-02-26T08:34:52.649Z,25.35
2019-02-26T08:35:58.889Z,15.78
2019-02-26T08:37:03.193Z,23.12
2019-02-26T08:38:16.224Z,18.27
2019-02-26T08:39:20.774Z,19.02
2019-02-26T08:40:26.009Z,21.15
2019-02-26T08:41:30.525Z,38.45
2019-02-26T08:42:36.369Z,27.60
2019-02-26T08:43:44.159Z,19.45
2019-02-26T08:44:48.671Z,20.25
2019-02-26T08:45:53.145Z,22.17
2019-02-26T08:46:57.239Z,17.82
2019-02-26T08:48:01.936Z,22.75
2019-02-26T08:49:20.274Z,26.87
2019-02-26T08:50:24.084Z,17.60
2019-02-26T08:51:28.180Z,15.70
2019-02-26T08:52:32.316Z,17.67
2019-02-26T08:55:24.540Z,20.50
2019-02-26T09:00:02.217Z,15.77
2019-02-26T09:01:50.125Z,19.20
2019-02-26T09:02:56.702Z,19.70
2019-02-26T09:04:06.620Z,18.50
2019-02-26T09:08:01.585Z,12.28
2019-02-26T09:09:33.262Z,12.18
2019-02-26T09:10:43.788Z,14.43
2019-02-26T09:11:52.792Z,11.03
2019-02-26T09:12:56.579Z,12.90
2019-02-26T09:14:03.883Z,14.45
2019-02-26T09:15:12.104Z,20.40
2019-02-26T09:16:25.094Z,17.15
2019-02-26T09:17:31.844Z,17.85
2019-02-26T09:18:38.225Z,18.98
2019-02-26T09:19:44.154Z,16.15
2019-02-26T09:20:49.658Z,14.95
2019-02-26T09:21:54.754Z,15.13
2019-02-26T09:23:02.524Z,18.10
2019-02-26T09:24:10.101Z,20.77
2019-02-26T09:25:20.416Z,15.32
2019-02-26T09:26:26.529Z,17.60
2019-02-26T09:27:35.082Z,24.00
2019-02-26T09:28:47.537Z,24.70
2019-02-26T09:29:51.835Z,32.70
2019-02-26T09:31:00.961Z,29.45
2019-02-26T09:32:06.742Z,24.67
2019-02-26T09:33:18.544Z,16.30
2019-02-26T09:34:26.673Z,18.50
2019-02-26T09:35:42.298Z,30.72
2019-02-26T09:36:50.657Z,19.52
2019-02-26T09:37:55.614Z,17.87
2019-02-26T09:39:00.046Z,25.75
2019-02-26T09:40:14.344Z,15.18
2019-02-26T09:41:21.483Z,19.42
2019-02-26T09:42:27.837Z,18.85
2019-02-26T09:43:32.733Z,14.23
2019-02-26T09:44:40.683Z,17.98
2019-02-26T09:45:48.242Z,35.70
2019-02-26T09:46:55.359Z,15.60
2019-02-26T09:48:01.285Z,17.05
2019-02-26T09:49:09.962Z,15.55
2019-02-26T09:50:17.566Z,19.77
2019-02-26T09:51:25.665Z,19.52
2019-02-26T09:52:32.564Z,18.85
2019-02-26T09:53:37.215Z,15.68
2019-02-26T09:54:45.201Z,16.52
2019-02-26T09:55:52.076Z,17.75
2019-02-26T09:56:59.106Z,17.77
2019-02-26T09:58:06.103Z,13.25
2019-02-26T09:59:14.839Z,13.50
2019-02-26T10:00:23.591Z,11.18
2019-02-26T10:01:30.575Z,18.67
2019-02-26T10:02:35.206Z,11.75
2019-02-26T10:03:41.446Z,9.30
2019-02-26T10:04:49.610Z,17.77
2019-02-26T10:05:55.999Z,9.33
2019-02-26T10:07:07.552Z,14.85
2019-02-26T10:08:17.297Z,15.68
2019-02-26T10:09:43.273Z,14.40
2019-02-26T10:17:47.516Z,12.63
2019-02-26T10:18:56.721Z,15.32
2019-02-26T10:20:04.991Z,13.70
2019-02-26T10:21:20.352Z,11.85
2019-02-26T10:22:49.313Z,12.68
2019-02-26T10:23:56.814Z,13.40
2019-02-26T10:25:23.254Z,15.63
2019-02-26T10:26:30.761Z,19.02
2019-02-26T10:27:38.817Z,11.93
2019-02-26T10:28:46.954Z,14.80
2019-02-26T10:29:52.067Z,11.00
2019-02-26T10:31:01.784Z,16.57
2019-02-26T10:32:06.724Z,14.60
2019-02-26T10:33:17.439Z,12.28
2019-02-26T10:34:25.620Z,15.50
2019-02-26T10:35:38.881Z,11.30
2019-02-26T10:36:49.700Z,10.38
2019-02-26T10:37:57.072Z,14.80
2019-02-26T10:39:07.374Z,9.75
2019-02-26T10:40:14.445Z,13.75
2019-02-26T10:41:21.137Z,27.70
2019-02-26T10:42:26.655Z,21.45
2019-02-26T10:43:32.022Z,14.83
2019-02-26T10:44:38.684Z,14.18
2019-02-26T10:45:47.286Z,18.42
2019-02-26T10:46:50.935Z,13.68
2019-02-26T10:47:56.925Z,15.45
2019-02-26T10:49:03.431Z,19.17
2019-02-26T10:50:13.125Z,31.68
2019-02-26T10:51:18.443Z,17.20
2019-02-26T10:53:06.724Z,25.95
2019-02-26T10:54:08.700Z,15.48
2019-02-26T10:55:15.010Z,20.37
2019-02-26T10:56:19.055Z,19.57
2019-02-26T10:57:26.445Z,27.00
2019-02-26T10:59:27.103Z,22.20
2019-02-26T11:00:35.276Z,13.43
2019-02-26T11:01:41.999Z,17.45
2019-02-26T11:02:48.451Z,24.00
2019-02-26T11:04:05.187Z,16.23
2019-02-26T11:05:14.374Z,14.95
2019-02-26T11:06:22.141Z,17.65
2019-02-26T11:07:55.733Z,18.80
2019-02-26T11:09:08.997Z,12.10
2019-02-26T11:10:41.341Z,15.40
2019-02-26T11:12:13.134Z,20.43
2019-02-26T11:13:28.233Z,13.90
2019-02-26T11:14:36.226Z,16.12
2019-02-26T11:15:43.674Z,25.82
2019-02-26T11:16:55.139Z,15.98
2019-02-26T11:18:03.115Z,14.60
2019-02-26T11:19:14.464Z,12.95
2019-02-26T11:20:27.055Z,14.75
2019-02-26T11:21:50.064Z,14.38
2019-02-26T11:22:58.465Z,23.70
2019-02-26T11:24:04.145Z,13.70
2019-02-26T11:25:16.368Z,11.73
2019-02-26T11:26:54.064Z,19.55
2019-02-26T11:28:49.489Z,11.45
2019-02-26T11:29:57.672Z,12.10
2019-02-26T11:31:02.626Z,19.05
2019-02-26T11:32:10.251Z,19.32
2019-02-26T11:33:22.833Z,46.65
2019-02-26T11:34:30.396Z,37.53
2019-02-26T11:35:34.761Z,38.65
2019-02-26T11:36:45.271Z,26.65
2019-02-26T11:37:52.264Z,22.85
2019-02-26T11:39:11.905Z,20.05
2019-02-26T11:40:24.801Z,16.40
2019-02-26T11:41:33.270Z,15.48
2019-02-26T11:42:39.906Z,18.95
2019-02-26T11:43:48.396Z,20.27
2019-02-26T11:44:54.252Z,13.08
2019-02-26T11:46:01.480Z,17.85
2019-02-26T11:47:11.234Z,14.70
2019-02-26T11:48:17.605Z,13.58
2019-02-26T11:49:37.005Z,13.65
2019-02-26T11:50:44.527Z,14.45
2019-02-26T11:51:55.380Z,21.85
2019-02-26T11:53:03.294Z,14.68
2019-02-26T11:54:15.670Z,14.35
2019-02-26T11:55:24.243Z,17.32
2019-02-26T11:56:38.506Z,19.25
2019-02-26T11:57:49.807Z,45.23
2019-02-26T11:58:55.253Z,14.87
2019-02-26T12:00:01.980Z,16.10
2019-02-26T12:01:13.279Z,224.40
2019-02-26T12:02:26.688Z,209.62
2019-02-26T12:03:38.983Z,108.05
2019-02-26T12:04:49.561Z,51.25
2019-02-26T12:05:56.627Z,24.60
2019-02-26T12:07:09.824Z,25.55
2019-02-26T12:08:16.743Z,28.42
2019-02-26T12:09:22.665Z,21.12
2019-02-26T12:10:30.538Z,22.02
2019-02-26T12:11:34.751Z,25.25
2019-02-26T12:12:40.348Z,16.20
2019-02-26T12:13:53.184Z,15.98
2019-02-26T12:15:06.627Z,15.18
2019-02-26T12:16:14.105Z,14.40
2019-02-26T12:17:19.526Z,9.30
2019-02-26T12:18:26.236Z,14.53
2019-02-26T12:19:39.372Z,14.03
2019-02-26T12:21:20.548Z,16.40
2019-02-26T12:22:36.089Z,16.07
2019-02-26T12:23:43.478Z,25.57
2019-02-26T12:24:55.775Z,30.30
2019-02-26T12:28:09.074Z,17.30
2019-02-26T12:29:29.083Z,19.12
2019-02-26T12:30:43.904Z,16.67
2019-02-26T12:31:50.264Z,17.23
2019-02-26T12:32:55.645Z,21.12
2019-02-26T12:34:04.729Z,16.75
2019-02-26T12:35:20.340Z,12.33
2019-02-26T12:36:29.853Z,14.47
2019-02-26T12:37:40.716Z,15.95
2019-02-26T12:38:48.232Z,21.12
2019-02-26T12:39:55.493Z,15.55
2019-02-26T12:41:08.178Z,10.80
2019-02-26T12:42:15.837Z,11.15
2019-02-26T12:43:22.995Z,11.03
2019-02-26T12:44:37.439Z,10.70
2019-02-26T12:46:38.043Z,12.68
2019-02-26T12:47:45.540Z,13.25
2019-02-26T12:48:50.344Z,10.05
2019-02-26T12:49:58.709Z,8.88
2019-02-26T12:51:44.102Z,8.65
2019-02-26T12:52:57.038Z,10.30
2019-02-26T12:54:03.503Z,10.88
2019-02-26T12:55:10.546Z,9.30
2019-02-26T12:56:16.595Z,11.38
2019-02-26T12:57:23.773Z,10.88
2019-02-26T12:58:30.106Z,13.20
2019-02-26T12:59:36.438Z,10.80
2019-02-26T13:00:45.098Z,11.40
2019-02-26T13:01:51.851Z,15.50
2019-02-26T13:02:57.513Z,17.30
2019-02-26T13:04:02.518Z,11.05
2019-02-26T13:05:13.460Z,10.93
2019-02-26T13:06:22.806Z,12.80
2019-02-26T13:07:29.778Z,9.18
2019-02-26T13:08:54.220Z,11.45
2019-02-26T13:10:03.363Z,8.83
2019-02-26T13:11:06.332Z,10.90
2019-02-26T13:12:12.650Z,8.18
2019-02-26T13:13:17.913Z,17.67
2019-02-26T13:14:26.400Z,9.88
2019-02-26T13:15:34.715Z,12.30
2019-02-26T13:16:39.899Z,11.45
2019-02-26T13:17:54.652Z,10.70
2019-02-26T13:19:04.363Z,20.17
2019-02-26T13:20:15.781Z,10.98
2019-02-26T13:21:26.311Z,16.60
2019-02-26T13:22:31.191Z,11.68
2019-02-26T13:23:43.082Z,13.25
2019-02-26T13:24:51.201Z,12.50
2019-02-26T13:25:57.007Z,13.88
2019-02-26T13:27:16.239Z,10.75
2019-02-26T13:28:37.903Z,11.38
2019-02-26T13:29:47.478Z,16.52
2019-02-26T13:30:50.591Z,11.73
2019-02-26T13:33:11.092Z,14.55
2019-02-26T13:35:58.800Z,12.90
2019-02-26T13:37:00.445Z,14.50
2019-02-26T13:38:14.428Z,14.98
2019-02-26T13:39:29.950Z,14.75
2019-02-26T13:40:38.717Z,26.20
2019-02-26T13:41:46.960Z,23.12
2019-02-26T13:44:12.558Z,19.90
2019-02-26T13:45:19.621Z,16.50
2019-02-26T13:46:26.396Z,17.80
2019-02-26T13:47:34.535Z,20.10
2019-02-26T13:48:42.721Z,38.67
2019-02-26T13:49:48.556Z,20.25
2019-02-26T13:50:59.187Z,18.20
2019-02-26T13:52:05.021Z,21.42
2019-02-26T13:53:21.378Z,22.60
2019-02-26T13:54:26.851Z,18.17
2019-02-26T13:55:32.667Z,18.77
2019-02-26T13:56:40.316Z,17.23
2019-02-26T13:57:45.894Z,26.20
2019-02-26T13:58:50.928Z,26.80
2019-02-26T13:59:57.801Z,20.88
2019-02-26T14:01:09.178Z,24.20
2019-02-26T14:02:25.648Z,19.55
2019-02-26T14:03:30.715Z,21.45
2019-02-26T14:05:06.270Z,17.98
2019-02-26T14:10:47.706Z,16.05
2019-02-26T14:11:54.089Z,19.75
2019-02-26T14:13:52.987Z,19.90
2019-02-26T14:17:41.259Z,21.07
2019-02-26T14:18:49.084Z,34.58
2019-02-26T14:20:08.626Z,36.75
2019-02-26T14:21:19.280Z,59.48
2019-02-26T14:22:35.600Z,37.78
2019-02-26T14:23:41.814Z,44.73
2019-02-26T14:24:47.413Z,40.80
2019-02-26T14:26:03.564Z,36.65
2019-02-26T14:27:10.907Z,46.70
2019-02-26T14:28:18.505Z,25.10
2019-02-26T14:29:36.323Z,32.98
2019-02-26T14:30:44.195Z,20.00
2019-02-26T14:31:53.081Z,21.87
2019-02-26T14:32:59.672Z,35.05
2019-02-26T14:34:28.670Z,70.25
2019-02-26T14:35:42.158Z,54.40
2019-02-26T14:36:55.820Z,65.95
2019-02-26T14:38:03.280Z,41.25
2019-02-26T14:39:08.786Z,28.55
2019-02-26T14:40:23.130Z,37.13
2019-02-26T14:41:31.412Z,37.50
2019-02-26T14:42:43.599Z,57.15
2019-02-26T14:43:49.490Z,37.30
2019-02-26T14:44:58.705Z,30.92
2019-02-26T14:46:17.382Z,37.98
2019-02-26T14:47:25.084Z,27.95
2019-02-26T14:48:31.652Z,27.13
2019-02-26T14:49:53.958Z,21.73
2019-02-26T14:51:01.047Z,21.50
2019-02-26T14:52:22.108Z,40.28
2019-02-26T14:53:42.746Z,17.70
2019-02-26T14:54:51.387Z,16.23
2019-02-26T15:28:20.250Z,30.07
2019-02-26T15:29:24.441Z,44.88
2019-02-26T15:30:29.368Z,30.60
2019-02-26T15:31:56.883Z,33.50
2019-02-26T15:33:11.125Z,36.58
2019-02-26T15:34:13.821Z,30.72
2019-02-26T15:35:19.547Z,23.52
2019-02-26T17:45:57.086Z,30.03
2019-02-26T17:47:01.684Z,24.65
2019-02-26T17:48:09.016Z,27.13
2019-02-26T17:49:14.630Z,29.82
2019-02-26T17:50:23.730Z,24.82
2019-02-26T17:51:32.008Z,23.70
2019-02-26T17:52:40.843Z,31.52
2019-02-26T17:53:52.292Z,24.98
2019-02-26T17:55:01.151Z,31.42
2019-02-26T17:56:09.136Z,34.43
2019-02-26T17:57:13.490Z,24.45
2019-02-26T17:58:20.117Z,26.80
2019-02-26T17:59:24.384Z,25.95
2019-02-26T18:00:29.181Z,27.80
2019-02-26T18:01:35.242Z,22.15
2019-02-26T18:02:43.004Z,22.77
2019-02-26T18:03:48.704Z,22.00